Aktuell sind 144 Gäste und 2 Mitglieder online

[source: ADDS]
METAR
EDVE 241050Z 22013KT 9999 FEW016 OVC025 11/08 Q1016

EDDV 241050Z 20014KT 9999 FEW022 BKN030 12/08 Q1015 BECMG 22015G25KT

ETHS 241020Z 22011KT 9999 SCT008 BKN017 10/08 Q1014 WHT GRN TEMPO WHT

ETHC 241020Z 19010KT 9999 FEW017 BKN024 11/08 Q1015 WHT WHT BECMG BLU

EDVK 241050Z 17011KT 140V220 9999 FEW006 OVC012 09/09 Q1018

TAF
TAF EDVE 240800Z 2409/2418 22010KT 9999 SCT030 BECMG 2409/2412 22015G25KT TEMPO 2412/2418 22020G30KT

TAF EDDV 240500Z 2406/2506 21012KT 9999 SCT012 BKN020 PROB40 TEMPO 2406/2410 BKN012 BECMG 2408/2410 21015G25KT PROB40 TEMPO 2410/2416 22020G35KT BECMG 2500/2502 23012KT

TAF COR ETHS 240853Z 2409/2418 22010KT 7000 NSW SCT007 BKN012 TEMPO 2409/2415 23015G25KT 9999 NSW SCT012 BKN020 TEMPO 2415/2418 25015G25KT 4000 -SHRA SCT005 BKN009

TAF ETHC 240823Z 2409/2418 20010KT 9999 NSW BKN015 BECMG 2410/2412 22015G25KT 9999 NSW SCT015 BKN030

TAF AMD EDVK 240948Z 2409/2418 20010KT 9999 BKN008 PROB30 TEMPO 2409/2412 SCT008 TEMPO 2411/2417 22015G25KT BECMG 2412/2414 SCT012

SR / SS: 07:09 / 15:50 UTC (EDVE 2018-01-24)
das Jahr ist noch jung und wir begrüßen bereits drei neue Mitglieder! Hallo, Dirk, Michael und Miroslaw. Viel Spaß im Verein, bei der Ausbildung und bei euren Flügen! +++ Kurz vor Jahresende begrüßen wir Christoph als neues Mitglied! Herzlich willkommen und always happy landings! +++ Ferdinand hat Mitte November seinen PPL bestanden! Herzlichen Glückwunsch und always happy landings! +++ Willkommen im Verein, Torben! Viel Spaß und always happy landings! +++ Der November bringt zwei neue Mitglieder! Willkommen David und Martin! Viel Spaß und Erfolg bei der Ausbildung! +++ Herzlich Willkommen im Verein Thomas! (27.10.) +++ Christian und Dennis haben ihre PPL-Prüfung bestanden! Herzlichen Glückwunsch und always happy landings!

 

Das Prinzip des Heizgerätes zum Vorheizen unserer Flugzeuge ist einfach: Ein Gasbrenner erhitzt Luft und bläst sie in eine Blechkiste. Dort beschleunigt ein großer Lüfter die Luft und drückt sie durch Luftschläuche in den Motorraum eines Flugzeuges. Nach etwa 20-30 Minuten Vorheizzeit ist eine ausreichende Temperatur zum Motorstart vorhanden.

Weiterlesen ...

Auch im Winter stehen unsere Flugzeuge sicher untergebracht in unserer Halle. Schneelast- und sturmwinderprobt ist sie bereits und hat diese Wettereinflüsse prima überstanden. Im Winter sind bei Schnee und Eis ein paar Erfahrungswerte nützlich:

Weiterlesen ...

Die Halle erlaubt eine einfache Aufstellung der Luftfahrzeuge. Jedem Flugzeug ist ein fester Platz zugewiesen der es erlaubt, mit geringem Aufwand das gewünschte Flugzeug nach vorne zu holen. Ziel bei der gewählten Aufstellung ist es,

Weiterlesen ...

Das Tor der Halle ist ein sogenanntes Planentor, es funktioniert ungefähr so wie ein Duschvorhang. Die linke und die rechte Hälfte des Tores waren in der Mitte durch sechs Gurte verbunden (drei an der Innenseite, drei an der Außenseite), wenn das Tor geschlossen ist.

Der obere Gurt (innen und außen) ist für normal große Leute

Weiterlesen ...

Die installierte elektrische Anlage ist wartungsfrei. Das Licht wird automatisch, durch Bewegungssensoren gesteuert, ein- und ausgeschaltet.

Weiterlesen ...

Letztes NOTAM EDVE
von 13.02.2018 0830Z bis 14.02.2018 1100Z
LEINE DVOR/DME DLE 115.20/CH99X ON MAINTENANCE. DO NOT USE. DISREGARD ALL SIGNALS.

Letztes NOTAM EDCB
von 07.01.2018 1124Z bis 18.03.2018 1800Z
GRAS RWY 09/27 CLSD.

Letztes NOTAM EDBC
von 10.01.2018 0000Z bis 10.04.2018 0000Z
COCHSTEDT DME COD 113.35/CH80Y FLTCK OVERDUE, DISREGARD ALL SIGNALS.

Letztes NOTAM EDVM
von 18.01.2018 1400Z bis 15.04.2018 1800Z
THR 25 DISPLACED 200M TO THE WEST. AVBL RWY LENGTH RWY 25 1020M. TKOF RWY 07 AVBL LENGTH 1020M. DEP SECTOR LIMITED IN THE SOUTHEASTEN [more]

Letztes NOTAM EDVI
von 18.12.2017 0000Z bis 28.02.2018 2359Z
AD PPR, REQ VIA PHONE +49(0)163-5744126 OR +49(0)5271-6999060

Letztes NOTAM EDDV
von 25.01.2018 1000Z bis 25.01.2018 1400Z
AVGAS STATON (GENERAL AVIATION) OUT OF SERVICE.

Letztes NOTAM EDVK
von 15.01.2018 2200Z bis 25.01.2018 2200Z
DIRECTION FINDING STATION NOT AVBL, DUE TO MAINT.

Letztes NOTAM EDVS
von 03.01.2018 0919Z bis 28.03.2018 2359Z
NORTHERN TWY CLOSED.

Letztes NOTAM ETHS
von 24.01.2018 1100Z bis 24.01.2018 1300Z
AERODROME SURVEILLANCE RADAR OUT OF SERVICE.

EDCB.png          aerodata150     Radio38